THY5055 OEMA-LTFM
Flight info
| Callsign | THY5055 |
|---|---|
| Flight time | N/A |
| Altitude | 38000 |
| Route | PEGUR Z712 WEJ L677 GESON DCT LAGVI Q777 RASDA M855 TOMBI UM855 SISPI |
| Aircraft | B77W/H-SDE1E2E3FGHIJ2J3J4J5M1RWXY/LB1D1 |
Departure
| Time | 2026-04-21 16:24 |
|---|---|
| Airport | Prince Mohammad Bin Abdulaziz Airport (OEMA) |
Arrival
| Time | N/A |
|---|---|
| Airport | İstanbul Airport (LTFM) |
| Time | Latitude | Longitude | Altitude | Speed | Heading |
|---|---|---|---|---|---|
| 2026-04-21 16:16 | 24.54806 | 39.71426 | 2089 ft | 0 kts | 79° |
| 2026-04-21 16:17 | 24.54803 | 39.71412 | 2089 ft | 4 kts | 82° |
| 2026-04-21 16:17 | 24.54801 | 39.71383 | 2089 ft | 4 kts | 91° |
| 2026-04-21 16:17 | 24.54804 | 39.71354 | 2089 ft | 4 kts | 105° |
| 2026-04-21 16:17 | 24.54815 | 39.71328 | 2089 ft | 4 kts | 137° |
| 2026-04-21 16:18 | 24.54826 | 39.71320 | 2089 ft | 2 kts | 169° |
| 2026-04-21 16:19 | 24.54822 | 39.71322 | 2089 ft | 2 kts | 155° |
| 2026-04-21 16:19 | 24.54820 | 39.71341 | 2089 ft | 3 kts | 73° |
| 2026-04-21 16:19 | 24.54838 | 39.71346 | 2090 ft | 3 kts | 345° |
| 2026-04-21 16:20 | 24.54857 | 39.71312 | 2090 ft | 9 kts | 282° |
| 2026-04-21 16:20 | 24.54849 | 39.71223 | 2089 ft | 14 kts | 261° |
| 2026-04-21 16:20 | 24.54821 | 39.71135 | 2089 ft | 11 kts | 212° |
| 2026-04-21 16:20 | 24.54707 | 39.71148 | 2087 ft | 23 kts | 169° |
| 2026-04-21 16:21 | 24.54545 | 39.71182 | 2080 ft | 24 kts | 169° |
| 2026-04-21 16:21 | 24.54382 | 39.71217 | 2077 ft | 24 kts | 169° |
| 2026-04-21 16:21 | 24.54218 | 39.71252 | 2075 ft | 24 kts | 169° |
| 2026-04-21 16:21 | 24.54057 | 39.71286 | 2073 ft | 24 kts | 169° |
| 2026-04-21 16:22 | 24.53933 | 39.71312 | 2073 ft | 16 kts | 169° |
| 2026-04-21 16:22 | 24.53844 | 39.71299 | 2071 ft | 12 kts | 237° |
| 2026-04-21 16:22 | 24.53822 | 39.71213 | 2070 ft | 11 kts | 259° |
| 2026-04-21 16:22 | 24.53839 | 39.71146 | 2071 ft | 10 kts | 323° |
| 2026-04-21 16:23 | 24.53921 | 39.71123 | 2072 ft | 23 kts | 349° |
| 2026-04-21 16:23 | 24.54327 | 39.71036 | 2080 ft | 95 kts | 349° |
| 2026-04-21 16:23 | 24.55174 | 39.70856 | 2093 ft | 154 kts | 349° |
| 2026-04-21 16:23 | 24.56362 | 39.70605 | 2260 ft | 185 kts | 348° |
| 2026-04-21 16:24 | 24.57670 | 39.70340 | 2714 ft | 194 kts | 347° |
| 2026-04-21 16:24 | 24.58959 | 39.70059 | 3569 ft | 184 kts | 346° |
| 2026-04-21 16:24 | 24.60168 | 39.69712 | 4412 ft | 175 kts | 340° |
| 2026-04-21 16:24 | 24.61364 | 39.69358 | 4885 ft | 189 kts | 351° |
| 2026-04-21 16:25 | 24.62764 | 39.69173 | 5034 ft | 215 kts | 349° |
| 2026-04-21 16:25 | 24.64316 | 39.68873 | 5260 ft | 242 kts | 347° |
| 2026-04-21 16:25 | 24.66063 | 39.68521 | 5613 ft | 264 kts | 348° |
| 2026-04-21 16:25 | 24.67907 | 39.68160 | 6291 ft | 274 kts | 348° |
| 2026-04-21 16:26 | 24.69806 | 39.67762 | 7024 ft | 280 kts | 347° |
| 2026-04-21 16:26 | 24.71728 | 39.67347 | 7820 ft | 283 kts | 346° |
| 2026-04-21 16:26 | 24.73673 | 39.66926 | 8568 ft | 289 kts | 346° |
| 2026-04-21 16:26 | 24.75669 | 39.66497 | 9333 ft | 293 kts | 346° |
| 2026-04-21 16:27 | 24.77665 | 39.66069 | 9855 ft | 299 kts | 346° |
| 2026-04-21 16:27 | 24.79725 | 39.65630 | 9895 ft | 303 kts | 346° |
| 2026-04-21 16:27 | 24.81789 | 39.65190 | 9903 ft | 300 kts | 346° |
| 2026-04-21 16:27 | 24.83831 | 39.64756 | 9887 ft | 296 kts | 346° |
| 2026-04-21 16:28 | 24.85846 | 39.64321 | 9897 ft | 295 kts | 345° |
| 2026-04-21 16:28 | 24.87763 | 39.63618 | 9975 ft | 293 kts | 323° |
| 2026-04-21 16:28 | 24.89235 | 39.62016 | 10215 ft | 308 kts | 306° |
| 2026-04-21 16:28 | 24.90589 | 39.60069 | 10410 ft | 333 kts | 305° |
| 2026-04-21 16:29 | 24.91553 | 39.58688 | 10540 ft | 350 kts | 306° |
| 2026-04-21 16:29 | 24.93627 | 39.55752 | 11167 ft | 371 kts | 306° |
| 2026-04-21 16:29 | 24.95238 | 39.53503 | 11939 ft | 377 kts | 306° |
| 2026-04-21 16:29 | 24.96854 | 39.51266 | 12956 ft | 377 kts | 306° |
| 2026-04-21 16:30 | 24.98501 | 39.48999 | 13914 ft | 380 kts | 306° |
| 2026-04-21 16:30 | 25.00163 | 39.46716 | 14772 ft | 383 kts | 305° |
| 2026-04-21 16:30 | 25.01840 | 39.44417 | 15621 ft | 386 kts | 305° |
| 2026-04-21 16:30 | 25.03533 | 39.42094 | 16454 ft | 390 kts | 305° |
| 2026-04-21 16:31 | 25.05239 | 39.39750 | 17294 ft | 393 kts | 304° |
| 2026-04-21 16:31 | 25.06958 | 39.37389 | 18150 ft | 396 kts | 304° |
| 2026-04-21 16:31 | 25.08690 | 39.35008 | 18864 ft | 400 kts | 304° |
| 2026-04-21 16:31 | 25.10420 | 39.32629 | 19581 ft | 403 kts | 304° |
| 2026-04-21 16:32 | 25.12190 | 39.30194 | 20317 ft | 406 kts | 304° |
| 2026-04-21 16:32 | 25.13964 | 39.27752 | 21041 ft | 409 kts | 304° |
| 2026-04-21 16:32 | 25.15753 | 39.25289 | 21736 ft | 412 kts | 304° |
| 2026-04-21 16:32 | 25.17556 | 39.22805 | 22442 ft | 416 kts | 304° |
| 2026-04-21 16:33 | 25.19350 | 39.20333 | 23157 ft | 418 kts | 304° |
| 2026-04-21 16:33 | 25.21174 | 39.17816 | 23764 ft | 421 kts | 303° |
| 2026-04-21 16:33 | 25.22939 | 39.15225 | 24321 ft | 421 kts | 299° |
| 2026-04-21 16:33 | 25.24534 | 39.12505 | 24913 ft | 422 kts | 298° |
| 2026-04-21 16:34 | 25.26123 | 39.09768 | 25526 ft | 424 kts | 298° |
| 2026-04-21 16:34 | 25.27180 | 39.07950 | 25912 ft | 426 kts | 298° |
| 2026-04-21 16:34 | 25.28787 | 39.05188 | 26499 ft | 427 kts | 298° |
| 2026-04-21 16:34 | 25.30401 | 39.02425 | 27109 ft | 428 kts | 298° |
| 2026-04-21 16:35 | 25.32020 | 38.99652 | 27632 ft | 430 kts | 298° |
| 2026-04-21 16:35 | 25.33648 | 38.96864 | 28113 ft | 433 kts | 298° |
| 2026-04-21 16:35 | 25.35287 | 38.94057 | 28603 ft | 436 kts | 298° |
| 2026-04-21 16:35 | 25.36934 | 38.91236 | 29078 ft | 438 kts | 298° |
| 2026-04-21 16:36 | 25.38589 | 38.88403 | 29551 ft | 440 kts | 298° |
| 2026-04-21 16:36 | 25.40255 | 38.85548 | 30032 ft | 440 kts | 298° |
| 2026-04-21 16:36 | 25.41895 | 38.82738 | 30508 ft | 438 kts | 298° |
| 2026-04-21 16:36 | 25.43550 | 38.79902 | 31042 ft | 436 kts | 297° |
| 2026-04-21 16:37 | 25.45189 | 38.77091 | 31555 ft | 433 kts | 297° |
| 2026-04-21 16:37 | 25.46826 | 38.74281 | 32025 ft | 432 kts | 297° |
| 2026-04-21 16:37 | 25.48430 | 38.71525 | 32472 ft | 431 kts | 297° |
| 2026-04-21 16:37 | 25.50052 | 38.68734 | 32943 ft | 429 kts | 297° |
| 2026-04-21 16:38 | 25.51666 | 38.65957 | 33378 ft | 428 kts | 297° |
| 2026-04-21 16:38 | 25.53279 | 38.63178 | 33804 ft | 427 kts | 297° |
| 2026-04-21 16:38 | 25.54884 | 38.60411 | 34161 ft | 426 kts | 296° |
| 2026-04-21 16:38 | 25.56464 | 38.57687 | 34550 ft | 424 kts | 296° |
| 2026-04-21 16:39 | 25.58052 | 38.54947 | 34946 ft | 421 kts | 296° |
| 2026-04-21 16:39 | 25.59630 | 38.52224 | 35320 ft | 419 kts | 296° |
| 2026-04-21 16:39 | 25.61201 | 38.49513 | 35673 ft | 418 kts | 296° |
| 2026-04-21 16:39 | 25.62767 | 38.46806 | 36007 ft | 416 kts | 296° |
| 2026-04-21 16:40 | 25.64326 | 38.44109 | 36327 ft | 415 kts | 296° |
| 2026-04-21 16:40 | 25.65878 | 38.41423 | 36646 ft | 413 kts | 296° |
| 2026-04-21 16:40 | 25.67430 | 38.38737 | 36953 ft | 411 kts | 296° |
| 2026-04-21 16:40 | 25.68976 | 38.36060 | 37330 ft | 409 kts | 296° |
| 2026-04-21 16:41 | 25.70506 | 38.33407 | 37657 ft | 407 kts | 296° |
| 2026-04-21 16:41 | 25.72015 | 38.30788 | 37774 ft | 410 kts | 296° |
| 2026-04-21 16:41 | 25.73553 | 38.28117 | 37827 ft | 411 kts | 296° |
| 2026-04-21 16:42 | 25.76609 | 38.22812 | 37842 ft | 404 kts | 296° |
| 2026-04-21 16:42 | 25.79622 | 38.17575 | 37846 ft | 400 kts | 296° |
| 2026-04-21 16:43 | 25.82609 | 38.12374 | 37866 ft | 398 kts | 295° |
| 2026-04-21 16:43 | 25.85574 | 38.07206 | 37852 ft | 400 kts | 295° |
| 2026-04-21 16:44 | 25.88575 | 38.01965 | 37850 ft | 403 kts | 295° |
| 2026-04-21 16:44 | 25.91577 | 37.96722 | 37859 ft | 404 kts | 296° |
| 2026-04-21 16:45 | 25.94610 | 37.91425 | 37868 ft | 406 kts | 296° |
| 2026-04-21 16:45 | 25.97639 | 37.86096 | 37886 ft | 406 kts | 294° |
| 2026-04-21 16:46 | 25.99888 | 37.80458 | 37898 ft | 400 kts | 285° |
| 2026-04-21 16:46 | 26.01450 | 37.74524 | 37891 ft | 398 kts | 277° |
| 2026-04-21 16:47 | 26.02273 | 37.68436 | 37905 ft | 398 kts | 276° |
| 2026-04-21 16:47 | 26.03067 | 37.62359 | 37901 ft | 396 kts | 276° |
| 2026-04-21 16:48 | 26.03883 | 37.56317 | 37903 ft | 393 kts | 276° |
| 2026-04-21 16:48 | 26.04700 | 37.50314 | 37900 ft | 389 kts | 276° |
| 2026-04-21 16:49 | 26.05493 | 37.44419 | 37912 ft | 387 kts | 276° |
| 2026-04-21 16:49 | 26.06278 | 37.38484 | 37899 ft | 388 kts | 276° |
| 2026-04-21 16:50 | 26.07062 | 37.32536 | 37897 ft | 390 kts | 276° |
| 2026-04-21 16:50 | 26.07858 | 37.26536 | 37891 ft | 392 kts | 276° |
| 2026-04-21 16:51 | 26.08644 | 37.20562 | 37882 ft | 394 kts | 276° |
| 2026-04-21 16:51 | 26.09441 | 37.14494 | 37893 ft | 396 kts | 276° |
| 2026-04-21 16:52 | 26.10233 | 37.08459 | 37878 ft | 396 kts | 276° |
| 2026-04-21 16:52 | 26.11026 | 37.02373 | 37882 ft | 397 kts | 276° |
| 2026-04-21 16:53 | 26.11816 | 36.96288 | 37891 ft | 397 kts | 276° |
| 2026-04-21 16:53 | 26.12606 | 36.90198 | 37852 ft | 397 kts | 276° |
| 2026-04-21 16:54 | 26.13390 | 36.84129 | 37865 ft | 396 kts | 276° |
| 2026-04-21 16:54 | 26.14166 | 36.78102 | 37879 ft | 395 kts | 276° |
| 2026-04-21 16:55 | 26.14942 | 36.72052 | 37889 ft | 394 kts | 275° |
| 2026-04-21 16:55 | 26.15716 | 36.65993 | 37877 ft | 394 kts | 275° |
| 2026-04-21 16:56 | 26.16482 | 36.59986 | 37875 ft | 394 kts | 275° |
| 2026-04-21 16:56 | 26.17312 | 36.53950 | 37847 ft | 395 kts | 281° |
| 2026-04-21 16:57 | 26.19469 | 36.48242 | 37864 ft | 404 kts | 292° |
| 2026-04-21 16:57 | 26.22699 | 36.43074 | 37863 ft | 418 kts | 304° |
| 2026-04-21 16:58 | 26.26794 | 36.38417 | 37858 ft | 420 kts | 306° |
| 2026-04-21 16:58 | 26.30915 | 36.33778 | 37867 ft | 421 kts | 306° |
| 2026-04-21 16:59 | 26.34987 | 36.29126 | 37868 ft | 420 kts | 305° |
| 2026-04-21 16:59 | 26.39054 | 36.24440 | 37882 ft | 419 kts | 305° |
| 2026-04-21 17:00 | 26.43108 | 36.19754 | 37875 ft | 419 kts | 305° |
| 2026-04-21 17:00 | 26.46479 | 36.15853 | 37880 ft | 419 kts | 305° |
| 2026-04-21 17:01 | 26.51188 | 36.10400 | 37880 ft | 419 kts | 305° |
| 2026-04-21 17:01 | 26.55235 | 36.05708 | 37876 ft | 418 kts | 305° |
| 2026-04-21 17:02 | 26.59257 | 36.01041 | 37880 ft | 418 kts | 305° |
| 2026-04-21 17:02 | 26.63297 | 35.96347 | 37879 ft | 418 kts | 305° |
| 2026-04-21 17:03 | 26.67334 | 35.91651 | 37889 ft | 419 kts | 305° |
| 2026-04-21 17:03 | 26.71351 | 35.86972 | 37887 ft | 419 kts | 305° |
| 2026-04-21 17:04 | 26.75393 | 35.82261 | 37879 ft | 419 kts | 305° |
| 2026-04-21 17:04 | 26.79438 | 35.77542 | 37882 ft | 419 kts | 305° |
| 2026-04-21 17:05 | 26.83465 | 35.72839 | 37891 ft | 420 kts | 305° |
| 2026-04-21 17:05 | 26.87514 | 35.68105 | 37886 ft | 420 kts | 305° |
| 2026-04-21 17:06 | 26.91534 | 35.63399 | 37888 ft | 420 kts | 305° |
| 2026-04-21 17:06 | 26.95573 | 35.58666 | 37888 ft | 420 kts | 305° |
| 2026-04-21 17:07 | 26.98925 | 35.54733 | 37888 ft | 420 kts | 305° |
| 2026-04-21 17:07 | 27.03625 | 35.49213 | 37945 ft | 420 kts | 305° |
| 2026-04-21 17:08 | 27.07669 | 35.44456 | 37902 ft | 420 kts | 305° |
| 2026-04-21 17:08 | 27.11706 | 35.39704 | 37892 ft | 420 kts | 305° |
| 2026-04-21 17:09 | 27.17727 | 35.32606 | 37893 ft | 419 kts | 305° |
| 2026-04-21 17:09 | 27.21757 | 35.27849 | 37893 ft | 419 kts | 305° |
| 2026-04-21 17:10 | 27.25773 | 35.23102 | 37894 ft | 419 kts | 305° |
| 2026-04-21 17:10 | 27.29764 | 35.18379 | 37893 ft | 419 kts | 305° |
| 2026-04-21 17:11 | 27.33779 | 35.13622 | 37894 ft | 419 kts | 305° |
| 2026-04-21 17:11 | 27.37797 | 35.08857 | 37893 ft | 419 kts | 305° |
| 2026-04-21 17:12 | 27.41810 | 35.04091 | 37921 ft | 419 kts | 305° |
| 2026-04-21 17:12 | 27.45797 | 34.99352 | 37899 ft | 420 kts | 305° |
| 2026-04-21 17:13 | 27.49821 | 34.94565 | 37897 ft | 420 kts | 305° |
| 2026-04-21 17:13 | 27.53978 | 34.89910 | 37901 ft | 423 kts | 308° |
| 2026-04-21 17:14 | 27.58292 | 34.85379 | 37893 ft | 423 kts | 308° |
| 2026-04-21 17:14 | 27.62576 | 34.80881 | 37892 ft | 422 kts | 308° |
| 2026-04-21 17:15 | 27.66880 | 34.76333 | 37895 ft | 422 kts | 308° |
| 2026-04-21 17:15 | 27.71139 | 34.71818 | 37893 ft | 422 kts | 308° |
| 2026-04-21 17:16 | 27.75422 | 34.67271 | 37895 ft | 422 kts | 308° |
| 2026-04-21 17:16 | 27.79702 | 34.62723 | 37911 ft | 422 kts | 308° |
| 2026-04-21 17:17 | 27.83955 | 34.58198 | 37904 ft | 422 kts | 308° |
| 2026-04-21 17:17 | 27.88229 | 34.53645 | 37907 ft | 421 kts | 308° |
| 2026-04-21 17:18 | 27.92500 | 34.49091 | 37912 ft | 421 kts | 308° |
| 2026-04-21 17:18 | 27.96736 | 34.44571 | 37912 ft | 421 kts | 308° |
| 2026-04-21 17:19 | 28.00865 | 34.39898 | 37919 ft | 414 kts | 302° |
| 2026-04-21 17:19 | 28.04505 | 34.34842 | 37913 ft | 414 kts | 301° |
| 2026-04-21 17:20 | 28.08124 | 34.29811 | 37896 ft | 414 kts | 301° |
| 2026-04-21 17:20 | 28.11782 | 34.24739 | 37924 ft | 415 kts | 302° |
| 2026-04-21 17:21 | 28.15447 | 34.19656 | 37974 ft | 417 kts | 302° |
| 2026-04-21 17:21 | 28.19090 | 34.14597 | 37943 ft | 416 kts | 302° |
| 2026-04-21 17:22 | 28.22754 | 34.09513 | 37971 ft | 415 kts | 301° |
| 2026-04-21 17:22 | 28.25792 | 34.05289 | 37960 ft | 415 kts | 301° |
| 2026-04-21 17:23 | 28.29417 | 34.00239 | 37946 ft | 414 kts | 301° |
| 2026-04-21 17:23 | 28.33047 | 33.95180 | 37947 ft | 412 kts | 301° |
| 2026-04-21 17:24 | 28.36665 | 33.90126 | 37990 ft | 412 kts | 301° |
| 2026-04-21 17:24 | 28.40301 | 33.85044 | 37974 ft | 414 kts | 301° |
| 2026-04-21 17:25 | 28.43920 | 33.79978 | 37965 ft | 415 kts | 301° |
| 2026-04-21 17:25 | 28.47576 | 33.74855 | 37945 ft | 417 kts | 301° |
| 2026-04-21 17:26 | 28.51225 | 33.69736 | 37948 ft | 419 kts | 301° |
| 2026-04-21 17:26 | 28.54893 | 33.64587 | 37978 ft | 418 kts | 301° |
| 2026-04-21 17:27 | 28.58537 | 33.59456 | 37950 ft | 416 kts | 301° |
| 2026-04-21 17:27 | 28.62159 | 33.54350 | 37978 ft | 416 kts | 301° |
| 2026-04-21 17:28 | 28.65802 | 33.49212 | 37972 ft | 416 kts | 301° |
| 2026-04-21 17:28 | 28.69447 | 33.44076 | 37962 ft | 417 kts | 301° |
| 2026-04-21 17:29 | 28.73073 | 33.38961 | 37976 ft | 417 kts | 301° |
| 2026-04-21 17:29 | 28.76720 | 33.33808 | 37973 ft | 417 kts | 301° |
| 2026-04-21 17:30 | 28.80357 | 33.28660 | 37976 ft | 416 kts | 301° |
| 2026-04-21 17:30 | 28.83976 | 33.23532 | 37975 ft | 417 kts | 301° |
| 2026-04-21 17:31 | 28.87614 | 33.18371 | 37982 ft | 417 kts | 301° |
| 2026-04-21 17:31 | 28.91251 | 33.13204 | 37990 ft | 416 kts | 301° |
| 2026-04-21 17:32 | 28.94855 | 33.08080 | 37982 ft | 416 kts | 301° |
| 2026-04-21 17:32 | 28.98473 | 33.02927 | 37986 ft | 416 kts | 301° |
| 2026-04-21 17:33 | 29.02095 | 32.97762 | 37991 ft | 415 kts | 301° |
| 2026-04-21 17:33 | 29.05710 | 32.92602 | 37997 ft | 415 kts | 301° |
| 2026-04-21 17:34 | 29.09303 | 32.87466 | 38005 ft | 415 kts | 301° |
| 2026-04-21 17:34 | 29.12920 | 32.82289 | 37997 ft | 416 kts | 301° |
| 2026-04-21 17:35 | 29.16532 | 32.77112 | 37997 ft | 416 kts | 301° |
| 2026-04-21 17:35 | 29.20122 | 32.71961 | 38003 ft | 416 kts | 301° |
| 2026-04-21 17:36 | 29.23733 | 32.66773 | 38002 ft | 416 kts | 301° |
| 2026-04-21 17:36 | 29.27339 | 32.61586 | 38033 ft | 416 kts | 301° |
| 2026-04-21 17:37 | 29.30915 | 32.56413 | 38011 ft | 416 kts | 301° |
| 2026-04-21 17:37 | 29.34497 | 32.51189 | 38030 ft | 416 kts | 301° |
| 2026-04-21 17:38 | 29.38077 | 32.45959 | 38019 ft | 417 kts | 301° |
| 2026-04-21 17:38 | 29.41639 | 32.40753 | 38022 ft | 417 kts | 301° |
| 2026-04-21 17:39 | 29.45223 | 32.35511 | 38021 ft | 417 kts | 301° |
| 2026-04-21 17:39 | 29.48806 | 32.30263 | 38031 ft | 417 kts | 301° |
| 2026-04-21 17:40 | 29.52371 | 32.25034 | 38020 ft | 417 kts | 301° |
| 2026-04-21 17:40 | 29.55951 | 32.19779 | 38027 ft | 416 kts | 301° |
| 2026-04-21 17:41 | 29.59505 | 32.14552 | 38027 ft | 416 kts | 301° |
| 2026-04-21 17:41 | 29.63076 | 32.09294 | 38027 ft | 416 kts | 301° |
| 2026-04-21 17:42 | 29.66622 | 32.04066 | 38037 ft | 416 kts | 301° |
| 2026-04-21 17:42 | 29.70192 | 31.98797 | 38036 ft | 416 kts | 301° |
| 2026-04-21 17:43 | 29.73752 | 31.93535 | 38031 ft | 417 kts | 301° |
| 2026-04-21 17:43 | 29.77295 | 31.88292 | 38030 ft | 418 kts | 301° |
| 2026-04-21 17:44 | 29.80806 | 31.82971 | 38029 ft | 417 kts | 300° |
| 2026-04-21 17:44 | 29.84248 | 31.77585 | 38029 ft | 417 kts | 300° |
| 2026-04-21 17:45 | 29.87705 | 31.72204 | 38022 ft | 418 kts | 300° |
| 2026-04-21 17:45 | 29.89611 | 31.69663 | 38010 ft | 426 kts | 311° |
| 2026-04-21 17:45 | 29.92047 | 31.67628 | 38027 ft | 439 kts | 320° |
| 2026-04-21 17:46 | 29.97795 | 31.64943 | 38015 ft | 465 kts | 339° |
| 2026-04-21 17:46 | 30.04238 | 31.63822 | 38026 ft | 470 kts | 342° |
| 2026-04-21 17:47 | 30.10736 | 31.62795 | 38024 ft | 471 kts | 342° |
| 2026-04-21 17:47 | 30.17227 | 31.61686 | 38021 ft | 470 kts | 341° |
| 2026-04-21 17:48 | 30.23708 | 31.60527 | 38010 ft | 470 kts | 341° |
| 2026-04-21 17:48 | 30.30128 | 31.59366 | 38010 ft | 469 kts | 341° |
| 2026-04-21 17:49 | 30.36582 | 31.58199 | 38023 ft | 468 kts | 341° |
| 2026-04-21 17:49 | 30.43021 | 31.57035 | 38014 ft | 467 kts | 341° |
| 2026-04-21 17:50 | 30.49412 | 31.55880 | 38016 ft | 467 kts | 341° |
| 2026-04-21 17:50 | 30.55846 | 31.54715 | 38016 ft | 466 kts | 341° |
| 2026-04-21 17:51 | 30.62260 | 31.53551 | 38029 ft | 467 kts | 342° |
| 2026-04-21 17:51 | 30.68638 | 31.52393 | 38034 ft | 467 kts | 342° |
| 2026-04-21 17:52 | 30.75068 | 31.51224 | 38029 ft | 467 kts | 342° |
| 2026-04-21 17:52 | 30.81493 | 31.50057 | 38034 ft | 467 kts | 342° |
| 2026-04-21 17:53 | 30.87935 | 31.48886 | 38038 ft | 468 kts | 342° |
| 2026-04-21 17:53 | 30.94332 | 31.47723 | 38039 ft | 468 kts | 342° |
| 2026-04-21 17:54 | 31.00776 | 31.46549 | 38040 ft | 468 kts | 342° |
| 2026-04-21 17:54 | 31.07223 | 31.45372 | 38041 ft | 468 kts | 342° |
| 2026-04-21 17:55 | 31.13629 | 31.44201 | 38047 ft | 468 kts | 342° |
| 2026-04-21 17:55 | 31.20081 | 31.43020 | 38045 ft | 468 kts | 342° |
| 2026-04-21 17:56 | 31.26524 | 31.41838 | 38046 ft | 468 kts | 342° |
| 2026-04-21 17:56 | 31.32920 | 31.40643 | 38049 ft | 468 kts | 342° |
| 2026-04-21 17:57 | 31.39363 | 31.39431 | 38053 ft | 468 kts | 343° |
| 2026-04-21 17:57 | 31.45809 | 31.38222 | 38049 ft | 468 kts | 343° |
| 2026-04-21 17:58 | 31.52262 | 31.37010 | 38052 ft | 468 kts | 343° |
| 2026-04-21 17:58 | 31.58694 | 31.36002 | 38078 ft | 472 kts | 347° |
| 2026-04-21 17:59 | 31.65251 | 31.35356 | 38054 ft | 473 kts | 348° |
| 2026-04-21 17:59 | 31.71816 | 31.34722 | 38056 ft | 472 kts | 347° |
| 2026-04-21 18:00 | 31.78375 | 31.34052 | 38057 ft | 472 kts | 347° |
| 2026-04-21 18:00 | 31.84921 | 31.33373 | 38058 ft | 472 kts | 347° |
| 2026-04-21 18:01 | 31.91442 | 31.32696 | 38055 ft | 472 kts | 347° |
| 2026-04-21 18:01 | 31.97954 | 31.32013 | 38042 ft | 472 kts | 347° |
| 2026-04-21 18:02 | 32.04507 | 31.31325 | 38062 ft | 472 kts | 347° |
| 2026-04-21 18:02 | 32.11062 | 31.30640 | 38068 ft | 472 kts | 348° |
| 2026-04-21 18:03 | 32.17619 | 31.29956 | 38065 ft | 473 kts | 347° |
| 2026-04-21 18:03 | 32.24133 | 31.29258 | 38063 ft | 472 kts | 347° |
| 2026-04-21 18:04 | 32.30696 | 31.28544 | 38068 ft | 472 kts | 347° |
| 2026-04-21 18:04 | 32.37218 | 31.27836 | 38071 ft | 472 kts | 348° |
| 2026-04-21 18:05 | 32.43775 | 31.27125 | 38056 ft | 472 kts | 348° |
| 2026-04-21 18:05 | 32.50332 | 31.26413 | 38056 ft | 472 kts | 348° |
| 2026-04-21 18:06 | 32.56744 | 31.25285 | 38080 ft | 463 kts | 339° |
| 2026-04-21 18:06 | 32.62775 | 31.22802 | 38059 ft | 454 kts | 329° |
| 2026-04-21 18:07 | 32.68431 | 31.19490 | 38060 ft | 452 kts | 327° |
| 2026-04-21 18:07 | 32.74072 | 31.16128 | 38057 ft | 453 kts | 328° |
| 2026-04-21 18:08 | 32.79692 | 31.12816 | 38062 ft | 453 kts | 328° |
| 2026-04-21 18:08 | 32.85367 | 31.09490 | 38052 ft | 454 kts | 328° |
| 2026-04-21 18:09 | 32.91008 | 31.06182 | 38048 ft | 454 kts | 328° |
| 2026-04-21 18:09 | 32.96676 | 31.02851 | 38073 ft | 454 kts | 328° |
| 2026-04-21 18:10 | 33.02350 | 30.99512 | 38052 ft | 454 kts | 328° |
| 2026-04-21 18:10 | 33.08110 | 30.96437 | 38048 ft | 460 kts | 336° |
| 2026-04-21 18:11 | 33.13338 | 30.94968 | 38057 ft | 468 kts | 345° |
| 2026-04-21 18:11 | 33.19892 | 30.94479 | 38054 ft | 473 kts | 352° |
| 2026-04-21 18:12 | 33.26477 | 30.94320 | 38054 ft | 473 kts | 353° |
| 2026-04-21 18:12 | 33.33064 | 30.94133 | 38078 ft | 472 kts | 352° |
| 2026-04-21 18:13 | 33.39600 | 30.93901 | 38051 ft | 472 kts | 352° |
| 2026-04-21 18:13 | 33.46161 | 30.93653 | 38046 ft | 471 kts | 352° |
| 2026-04-21 18:14 | 33.55997 | 30.93281 | 38077 ft | 470 kts | 352° |
| 2026-04-21 18:15 | 33.62553 | 30.93035 | 38049 ft | 471 kts | 352° |
| 2026-04-21 18:15 | 33.69071 | 30.92790 | 38049 ft | 470 kts | 352° |
| 2026-04-21 18:16 | 33.75628 | 30.92543 | 38047 ft | 470 kts | 352° |
| 2026-04-21 18:16 | 33.82179 | 30.92296 | 38055 ft | 470 kts | 352° |
| 2026-04-21 18:17 | 33.88686 | 30.92050 | 38046 ft | 470 kts | 352° |
| 2026-04-21 18:17 | 33.95240 | 30.91802 | 38044 ft | 470 kts | 352° |
| 2026-04-21 18:18 | 34.01748 | 30.91474 | 38074 ft | 469 kts | 351° |
| 2026-04-21 18:18 | 34.08284 | 30.91092 | 38051 ft | 470 kts | 352° |
| 2026-04-21 18:19 | 34.14813 | 30.90724 | 38050 ft | 469 kts | 352° |
| 2026-04-21 18:19 | 34.21352 | 30.90363 | 38037 ft | 469 kts | 352° |
| 2026-04-21 18:20 | 34.27844 | 30.90013 | 38038 ft | 469 kts | 352° |
| 2026-04-21 18:20 | 34.34379 | 30.89685 | 38035 ft | 469 kts | 352° |
| 2026-04-21 18:21 | 34.40917 | 30.89358 | 38037 ft | 469 kts | 352° |
| 2026-04-21 18:21 | 34.47403 | 30.89029 | 38055 ft | 469 kts | 352° |
| 2026-04-21 18:22 | 34.53937 | 30.88696 | 38040 ft | 469 kts | 352° |
| 2026-04-21 18:22 | 34.60477 | 30.88362 | 38034 ft | 470 kts | 352° |
| 2026-04-21 18:23 | 34.66983 | 30.88093 | 38031 ft | 470 kts | 353° |
| 2026-04-21 18:23 | 34.73532 | 30.87904 | 38047 ft | 471 kts | 353° |
| 2026-04-21 18:24 | 34.80098 | 30.87711 | 38035 ft | 471 kts | 353° |
| 2026-04-21 18:24 | 34.86620 | 30.87505 | 38031 ft | 471 kts | 353° |
| 2026-04-21 18:25 | 34.93180 | 30.87294 | 38053 ft | 471 kts | 353° |
| 2026-04-21 18:25 | 34.99712 | 30.87083 | 38035 ft | 471 kts | 353° |
| 2026-04-21 18:26 | 35.06273 | 30.86872 | 38026 ft | 471 kts | 353° |
| 2026-04-21 18:26 | 35.12843 | 30.86660 | 38027 ft | 471 kts | 353° |
| 2026-04-21 18:27 | 35.19360 | 30.86449 | 38029 ft | 471 kts | 353° |
| 2026-04-21 18:27 | 35.25920 | 30.86227 | 38023 ft | 471 kts | 353° |
| 2026-04-21 18:28 | 35.32471 | 30.86001 | 38025 ft | 471 kts | 353° |
| 2026-04-21 18:28 | 35.39039 | 30.85776 | 38033 ft | 471 kts | 353° |
| 2026-04-21 18:29 | 35.45560 | 30.85553 | 38025 ft | 471 kts | 353° |
| 2026-04-21 18:29 | 35.52111 | 30.85329 | 38021 ft | 470 kts | 353° |
| 2026-04-21 18:30 | 35.58664 | 30.85105 | 38037 ft | 470 kts | 353° |
| 2026-04-21 18:30 | 35.65174 | 30.84837 | 38019 ft | 469 kts | 352° |
| 2026-04-21 18:31 | 35.71698 | 30.84421 | 38010 ft | 468 kts | 351° |
| 2026-04-21 18:31 | 35.78174 | 30.83998 | 38008 ft | 468 kts | 351° |
| 2026-04-21 18:32 | 35.84684 | 30.83592 | 38016 ft | 468 kts | 351° |
| 2026-04-21 18:32 | 35.91206 | 30.83193 | 38012 ft | 468 kts | 351° |
| 2026-04-21 18:33 | 35.97716 | 30.82794 | 38010 ft | 468 kts | 351° |
| 2026-04-21 18:33 | 36.04187 | 30.82395 | 38013 ft | 468 kts | 352° |
| 2026-04-21 18:34 | 36.10705 | 30.82138 | 38008 ft | 469 kts | 353° |
| 2026-04-21 18:34 | 36.17241 | 30.81966 | 38001 ft | 469 kts | 353° |
| 2026-04-21 18:35 | 36.22665 | 30.81808 | 37995 ft | 468 kts | 353° |
| 2026-04-21 18:35 | 36.30242 | 30.81566 | 38002 ft | 468 kts | 353° |
| 2026-04-21 18:36 | 36.36768 | 30.81355 | 37994 ft | 468 kts | 353° |
| 2026-04-21 18:36 | 36.43290 | 30.81144 | 37995 ft | 468 kts | 353° |
| 2026-04-21 18:37 | 36.49771 | 30.80916 | 37996 ft | 468 kts | 353° |
| 2026-04-21 18:37 | 36.56283 | 30.80681 | 37997 ft | 468 kts | 353° |
| 2026-04-21 18:38 | 36.62751 | 30.80449 | 38001 ft | 468 kts | 353° |
| 2026-04-21 18:38 | 36.69273 | 30.80216 | 38019 ft | 468 kts | 353° |
| 2026-04-21 18:39 | 36.75781 | 30.79984 | 38018 ft | 468 kts | 353° |
| 2026-04-21 18:39 | 36.82311 | 30.79751 | 38022 ft | 468 kts | 353° |
| 2026-04-21 18:40 | 36.88831 | 30.79517 | 38051 ft | 468 kts | 352° |
| 2026-04-21 18:40 | 36.94233 | 30.79202 | 38019 ft | 466 kts | 349° |
| 2026-04-21 18:41 | 37.01722 | 30.78280 | 38022 ft | 464 kts | 348° |
| 2026-04-21 18:41 | 37.08157 | 30.77442 | 38015 ft | 464 kts | 348° |
| 2026-04-21 18:42 | 37.14594 | 30.76635 | 38016 ft | 464 kts | 348° |
| 2026-04-21 18:42 | 37.20980 | 30.75849 | 38011 ft | 464 kts | 348° |
| 2026-04-21 18:43 | 37.27407 | 30.75057 | 38019 ft | 463 kts | 348° |
| 2026-04-21 18:43 | 37.33826 | 30.74264 | 38028 ft | 463 kts | 348° |
| 2026-04-21 18:44 | 37.40258 | 30.73467 | 38027 ft | 463 kts | 348° |
| 2026-04-21 18:44 | 37.46625 | 30.72587 | 38025 ft | 462 kts | 347° |
| 2026-04-21 18:45 | 37.53027 | 30.71593 | 38048 ft | 462 kts | 347° |
| 2026-04-21 18:45 | 37.59392 | 30.70640 | 38022 ft | 462 kts | 348° |